Time;durP1;ratioP1;P1;durP2;ratioP2;P2;SDS_P1;SDS_P2;PMS_P1;PMS_P2;Temp;Humidity;BMP_temperature;BMP_pressure;BME280_temperature;BME280_humidity;BME280_pressure;Samples;Min_cycle;Max_cycle;Signal;HPM_P1;HPM_P2
2023/11/28 00:01:15;;;;;;;5.60;5.10;;;4.10;99.90;;;;;;4931300;29;20031;-49
2023/11/28 00:03:43;;;;;;;6.38;5.07;;;4.10;99.90;;;;;;4948771;28;20027;-52
2023/11/28 00:06:14;;;;;;;5.47;4.93;;;4.10;99.90;;;;;;4968037;28;20520;-53
2023/11/28 00:08:39;;;;;;;6.32;5.68;;;4.10;99.90;;;;;;4953878;28;20516;-52
2023/11/28 00:11:05;;;;;;;5.22;4.38;;;4.20;99.90;;;;;;4930955;29;20114;-55
2023/11/28 00:13:30;;;;;;;6.90;4.85;;;4.10;99.90;;;;;;4931051;28;20027;-53
2023/11/28 00:15:56;;;;;;;5.72;4.57;;;4.20;99.90;;;;;;4948416;29;20062;-55
2023/11/28 00:18:21;;;;;;;4.50;4.10;;;4.20;99.90;;;;;;4931334;29;20027;-54
2023/11/28 00:20:47;;;;;;;6.82;4.30;;;4.20;99.90;;;;;;4931019;29;20554;-52
2023/11/28 00:23:12;;;;;;;4.60;4.20;;;4.20;99.90;;;;;;4961011;28;20506;-55
2023/11/28 00:25:40;;;;;;;5.22;4.72;;;4.20;99.90;;;;;;4965018;28;20080;-53
2023/11/28 00:28:05;;;;;;;5.90;5.03;;;4.20;99.90;;;;;;4949241;28;20113;-55
2023/11/28 00:30:31;;;;;;;6.32;5.07;;;4.30;99.90;;;;;;4935349;28;20517;-52
2023/11/28 00:32:57;;;;;;;5.03;4.53;;;4.30;99.90;;;;;;4960311;28;20043;-58
2023/11/28 00:35:23;;;;;;;4.93;4.43;;;4.30;99.90;;;;;;4934144;29;20501;-56
2023/11/28 00:37:48;;;;;;;5.22;4.75;;;4.30;99.90;;;;;;4962678;28;20045;-50
2023/11/28 00:40:14;;;;;;;6.07;4.78;;;4.30;99.90;;;;;;4985490;22;20031;-50
2023/11/28 00:42:40;;;;;;;7.63;4.70;;;4.30;99.90;;;;;;4967463;28;20531;-52
2023/11/28 00:45:07;;;;;;;4.82;4.25;;;4.30;99.90;;;;;;4953003;28;20073;-53
2023/11/28 00:47:33;;;;;;;5.88;4.55;;;4.30;99.90;;;;;;4970444;28;20055;-49
2023/11/28 00:49:59;;;;;;;5.40;4.90;;;4.40;99.90;;;;;;4970558;28;20398;-52
2023/11/28 00:52:24;;;;;;;5.38;4.13;;;4.50;99.90;;;;;;4970131;28;20026;-52
2023/11/28 00:54:50;;;;;;;5.55;4.90;;;4.40;99.90;;;;;;4970273;28;20027;-48
2023/11/28 00:57:15;;;;;;;4.50;4.10;;;4.40;99.90;;;;;;4970052;28;20027;-50
2023/11/28 00:59:41;;;;;;;5.80;4.22;;;4.50;99.90;;;;;;4970255;28;20486;-52
2023/11/28 01:02:08;;;;;;;4.53;3.97;;;4.50;99.90;;;;;;4969942;28;20493;-53
2023/11/28 01:04:34;;;;;;;4.85;4.35;;;4.50;99.90;;;;;;4969994;28;20110;-50
2023/11/28 01:07:00;;;;;;;6.38;5.40;;;4.50;99.90;;;;;;4969897;28;20034;-51
2023/11/28 01:09:26;;;;;;;11.02;7.15;;;4.50;99.90;;;;;;4969803;28;20417;-52
2023/11/28 01:11:51;;;;;;;7.88;4.55;;;4.60;99.90;;;;;;4969727;28;20031;-50
2023/11/28 01:14:18;;;;;;;4.28;3.97;;;4.60;99.90;;;;;;4969670;28;20482;-50
2023/11/28 01:16:46;;;;;;;4.78;4.38;;;4.60;99.90;;;;;;4952589;28;20031;-54
2023/11/28 01:19:13;;;;;;;4.95;4.43;;;4.50;99.90;;;;;;4969947;28;20042;-51
2023/11/28 01:21:38;;;;;;;5.30;4.80;;;4.60;99.90;;;;;;4969882;28;20034;-49
2023/11/28 01:24:04;;;;;;;4.90;4.40;;;4.60;99.90;;;;;;4969415;28;20034;-50
2023/11/28 01:26:29;;;;;;;4.78;4.38;;;4.50;99.90;;;;;;4969631;28;20035;-55
2023/11/28 01:28:55;;;;;;;4.65;4.25;;;4.50;99.90;;;;;;4952273;28;20034;-55
2023/11/28 01:31:24;;;;;;;4.97;4.53;;;4.50;99.90;;;;;;4969476;28;20444;-52
2023/11/28 01:33:50;;;;;;;4.63;4.22;;;4.50;99.90;;;;;;4969377;28;20027;-53
2023/11/28 01:36:15;;;;;;;8.88;4.78;;;4.60;99.90;;;;;;4969705;28;20030;-50
2023/11/28 01:38:41;;;;;;;7.07;4.97;;;4.60;99.90;;;;;;4952067;28;20120;-49
2023/11/28 01:41:08;;;;;;;5.75;4.40;;;4.60;99.90;;;;;;4969046;28;20042;-50
2023/11/28 01:43:34;;;;;;;5.30;4.78;;;4.70;99.90;;;;;;4969189;28;20030;-51
2023/11/28 01:46:03;;;;;;;5.80;4.28;;;4.70;99.90;;;;;;4952129;28;20027;-53
2023/11/28 01:48:29;;;;;;;5.10;4.65;;;4.70;99.90;;;;;;4969473;28;20030;-51
2023/11/28 01:50:54;;;;;;;5.13;4.60;;;4.60;99.90;;;;;;4969264;28;20375;-49
2023/11/28 01:53:21;;;;;;;5.40;4.70;;;4.60;99.90;;;;;;4969138;28;20026;-52
2023/11/28 01:55:47;;;;;;;5.63;4.97;;;4.60;99.90;;;;;;4969356;28;20022;-53
2023/11/28 01:58:13;;;;;;;5.45;4.95;;;4.60;99.90;;;;;;4969226;28;20114;-49
2023/11/28 02:00:38;;;;;;;5.35;4.85;;;4.60;99.90;;;;;;4969202;28;20031;-49
2023/11/28 02:03:06;;;;;;;5.70;4.88;;;4.60;99.90;;;;;;4951666;28;20030;-50
2023/11/28 02:05:32;;;;;;;5.40;4.90;;;4.60;99.90;;;;;;4969178;28;20038;-50
2023/11/28 02:07:59;;;;;;;7.82;5.15;;;4.60;99.90;;;;;;4971178;28;20027;-50
2023/11/28 02:10:25;;;;;;;5.60;4.93;;;4.70;99.90;;;;;;4972456;28;20264;-50
2023/11/28 02:12:50;;;;;;;6.03;5.43;;;4.80;99.90;;;;;;4972215;28;20027;-51
2023/11/28 02:15:33;;;;;;;5.22;4.72;;;4.80;99.90;;;;;;4972493;28;20098;-52
2023/11/28 02:17:59;;;;;;;5.40;4.80;;;4.70;99.90;;;;;;4972438;28;20495;-51
2023/11/28 02:20:24;;;;;;;6.70;5.35;;;4.80;99.90;;;;;;4972265;28;20037;-49
2023/11/28 02:22:50;;;;;;;5.95;5.38;;;4.80;99.90;;;;;;4972220;28;20027;-49
2023/11/28 02:25:15;;;;;;;5.43;4.93;;;4.90;99.90;;;;;;4972461;28;20440;-54
2023/11/28 02:27:41;;;;;;;8.18;5.35;;;5.00;99.90;;;;;;4972530;28;20058;-51
2023/11/28 02:30:07;;;;;;;5.20;4.70;;;4.90;99.90;;;;;;4972301;28;20105;-51
2023/11/28 02:32:32;;;;;;;8.07;5.63;;;5.00;99.90;;;;;;4971892;28;20037;-52
2023/11/28 02:34:58;;;;;;;5.72;4.90;;;4.90;99.90;;;;;;4954701;28;20029;-55
2023/11/28 02:37:23;;;;;;;5.40;4.90;;;5.00;99.90;;;;;;4972095;28;20038;-51
2023/11/28 02:39:49;;;;;;;7.97;5.05;;;5.10;99.90;;;;;;4972294;28;20578;-49
2023/11/28 02:42:14;;;;;;;6.00;5.40;;;5.10;99.90;;;;;;4971624;28;20035;-52
2023/11/28 02:44:40;;;;;;;6.32;5.28;;;5.20;99.90;;;;;;4972025;28;20027;-53
2023/11/28 02:47:06;;;;;;;7.15;5.65;;;5.20;99.90;;;;;;4971934;28;20066;-50
2023/11/28 02:49:31;;;;;;;6.32;5.72;;;5.10;99.90;;;;;;4971944;28;20088;-49
2023/11/28 02:51:57;;;;;;;9.15;5.55;;;5.10;99.90;;;;;;4971856;28;20038;-52
2023/11/28 02:54:22;;;;;;;6.47;5.70;;;5.20;99.90;;;;;;4971763;28;20027;-50
2023/11/28 02:56:48;;;;;;;6.60;6.00;;;5.30;99.90;;;;;;4971881;28;20114;-52
2023/11/28 02:59:14;;;;;;;6.68;6.07;;;5.30;99.90;;;;;;4971875;28;20015;-53
2023/11/28 03:01:39;;;;;;;7.50;5.78;;;5.20;99.90;;;;;;4972171;28;20027;-51
2023/11/28 03:04:04;;;;;;;7.55;5.82;;;5.10;99.90;;;;;;4971478;28;20109;-54
2023/11/28 03:06:30;;;;;;;6.47;5.88;;;5.10;99.90;;;;;;4971779;28;20371;-50
2023/11/28 03:08:55;;;;;;;6.35;5.75;;;5.10;99.90;;;;;;4954384;28;20027;-49
2023/11/28 03:11:21;;;;;;;6.32;5.68;;;5.10;99.90;;;;;;4971533;28;20031;-48
2023/11/28 03:13:46;;;;;;;7.15;6.45;;;5.20;99.90;;;;;;4971512;28;20490;-51
2023/11/28 03:16:12;;;;;;;7.13;6.43;;;5.20;99.90;;;;;;4971490;28;20126;-50
2023/11/28 03:18:37;;;;;;;7.03;6.32;;;5.20;99.90;;;;;;4970512;28;20023;-53
2023/11/28 03:21:04;;;;;;;6.35;5.75;;;5.20;99.90;;;;;;4971660;28;20594;-48
2023/11/28 03:23:29;;;;;;;8.02;6.55;;;5.20;99.90;;;;;;4971252;28;20038;-48
2023/11/28 03:25:55;;;;;;;7.07;6.38;;;5.10;99.90;;;;;;4954258;28;20027;-48
2023/11/28 03:28:20;;;;;;;11.90;7.25;;;5.00;99.90;;;;;;4971591;28;20031;-50
2023/11/28 03:30:45;;;;;;;9.35;7.93;;;5.10;99.90;;;;;;4971299;28;20034;-54
2023/11/28 03:33:11;;;;;;;14.63;9.43;;;5.10;99.90;;;;;;4971236;28;20031;-51
2023/11/28 03:35:37;;;;;;;14.52;10.65;;;5.00;99.90;;;;;;4971509;28;20048;-53
2023/11/28 03:38:02;;;;;;;13.10;10.70;;;4.80;99.90;;;;;;4953956;28;20065;-53
2023/11/28 03:40:28;;;;;;;15.05;10.95;;;4.60;99.90;;;;;;4971106;28;20039;-54
2023/11/28 03:42:53;;;;;;;14.10;10.23;;;4.30;99.90;;;;;;4970601;28;20035;-51
2023/11/28 03:45:19;;;;;;;13.27;10.00;;;4.00;99.90;;;;;;4971185;28;20425;-52
2023/11/28 03:47:44;;;;;;;14.52;9.18;;;3.80;99.90;;;;;;4971055;28;20031;-48
2023/11/28 03:50:11;;;;;;;11.68;8.73;;;3.60;99.90;;;;;;4970865;28;20494;-53
2023/11/28 03:52:36;;;;;;;12.15;8.70;;;3.60;99.90;;;;;;4970770;28;20033;-48
2023/11/28 03:55:02;;;;;;;13.32;7.43;;;3.30;99.90;;;;;;4971124;28;20023;-50
2023/11/28 03:57:28;;;;;;;9.15;6.50;;;3.30;99.90;;;;;;4970823;28;20026;-49
2023/11/28 03:59:53;;;;;;;8.85;6.35;;;3.10;99.90;;;;;;4970940;28;20031;-50
2023/11/28 04:02:19;;;;;;;9.38;6.47;;;3.00;99.90;;;;;;4970724;28;20027;-48
2023/11/28 04:04:44;;;;;;;6.93;5.25;;;3.00;99.90;;;;;;4970731;28;20516;-50
2023/11/28 04:07:11;;;;;;;3.95;3.45;;;2.90;99.90;;;;;;4971276;28;20031;-52
2023/11/28 04:09:37;;;;;;;5.00;4.03;;;2.70;99.90;;;;;;4971246;28;20029;-55
2023/11/28 04:12:05;;;;;;;6.05;4.20;;;2.60;99.90;;;;;;4970570;28;20027;-54
2023/11/28 04:14:30;;;;;;;5.82;4.57;;;2.60;99.90;;;;;;4970769;28;20019;-55
2023/11/28 04:16:55;;;;;;;4.13;3.17;;;2.60;99.90;;;;;;4970798;28;20041;-56
2023/11/28 04:19:21;;;;;;;4.80;3.33;;;2.50;99.90;;;;;;4970951;28;20112;-49
2023/11/28 04:21:46;;;;;;;3.83;3.42;;;2.50;99.90;;;;;;4970573;28;20041;-52
2023/11/28 04:24:12;;;;;;;5.82;3.33;;;2.50;99.90;;;;;;4970402;28;20485;-51
2023/11/28 04:26:41;;;;;;;5.32;3.42;;;2.50;99.90;;;;;;4953106;28;20072;-50
2023/11/28 04:29:06;;;;;;;4.47;3.35;;;2.50;99.90;;;;;;4970384;28;20023;-53
2023/11/28 04:31:32;;;;;;;5.28;4.03;;;2.60;99.90;;;;;;4970117;28;20077;-49
2023/11/28 04:33:57;;;;;;;7.15;4.38;;;2.70;99.90;;;;;;4970365;28;20501;-50
2023/11/28 04:36:25;;;;;;;8.10;4.65;;;2.80;99.90;;;;;;4970517;28;20031;-52
2023/11/28 04:38:50;;;;;;;6.13;4.00;;;2.80;99.90;;;;;;4970398;28;20065;-48
2023/11/28 04:41:16;;;;;;;5.93;3.80;;;2.70;99.90;;;;;;4970101;28;20445;-51
2023/11/28 04:43:41;;;;;;;5.80;3.95;;;2.80;99.90;;;;;;4952743;28;20062;-50
2023/11/28 04:46:07;;;;;;;6.72;3.95;;;2.90;99.90;;;;;;4970633;28;20440;-53
2023/11/28 04:48:33;;;;;;;5.93;4.15;;;2.90;99.90;;;;;;4970148;28;20075;-49
2023/11/28 04:50:59;;;;;;;7.80;4.80;;;2.90;99.90;;;;;;4970045;28;20117;-51
2023/11/28 04:53:25;;;;;;;6.72;5.15;;;3.10;99.90;;;;;;4970031;28;20057;-49
2023/11/28 04:55:50;;;;;;;10.15;5.20;;;3.10;99.90;;;;;;4970121;28;20031;-50
2023/11/28 04:58:16;;;;;;;6.40;4.85;;;3.20;99.90;;;;;;4970329;28;20031;-53
2023/11/28 05:00:41;;;;;;;8.18;4.60;;;3.30;99.90;;;;;;4969882;28;20497;-50
2023/11/28 05:03:07;;;;;;;6.82;4.28;;;3.40;99.90;;;;;;4969739;28;20042;-48
2023/11/28 05:05:32;;;;;;;3.70;3.40;;;3.40;99.90;;;;;;4952699;28;20034;-49
2023/11/28 05:07:58;;;;;;;3.92;3.53;;;3.40;99.90;;;;;;4970430;28;20026;-48
2023/11/28 05:10:23;;;;;;;4.63;3.58;;;3.50;99.90;;;;;;4969688;28;20027;-50
2023/11/28 05:12:49;;;;;;;3.67;2.90;;;3.40;99.90;;;;;;4969700;28;20027;-52
2023/11/28 05:15:15;;;;;;;3.53;3.13;;;3.40;99.90;;;;;;4970398;28;20026;-50
2023/11/28 05:17:40;;;;;;;4.05;3.33;;;3.40;99.90;;;;;;4969856;28;20092;-52
2023/11/28 05:20:08;;;;;;;5.65;3.70;;;3.40;99.90;;;;;;4952467;28;20110;-52
2023/11/28 05:22:33;;;;;;;3.50;2.97;;;3.50;99.90;;;;;;4969534;28;20027;-49
2023/11/28 05:24:59;;;;;;;5.25;3.00;;;3.60;99.90;;;;;;4969856;28;20026;-52
2023/11/28 05:27:24;;;;;;;2.80;2.30;;;3.60;99.90;;;;;;4952514;28;20100;-52
2023/11/28 05:29:50;;;;;;;4.15;1.90;;;3.60;99.90;;;;;;4952370;28;20062;-50
2023/11/28 05:32:15;;;;;;;3.00;1.73;;;3.50;99.90;;;;;;4969555;28;20078;-52
2023/11/28 05:34:41;;;;;;;1.77;1.67;;;3.50;99.90;;;;;;4969434;28;20417;-50
2023/11/28 05:37:07;;;;;;;1.98;1.60;;;3.40;99.90;;;;;;4952453;28;20059;-53
2023/11/28 05:39:32;;;;;;;1.60;1.50;;;3.50;99.90;;;;;;4969439;28;20034;-49
2023/11/28 05:41:58;;;;;;;1.80;1.70;;;3.50;99.90;;;;;;4970224;28;20027;-49
2023/11/28 05:44:23;;;;;;;1.60;1.50;;;3.50;99.90;;;;;;4955625;28;20054;-51
2023/11/28 05:46:49;;;;;;;1.65;1.55;;;3.50;99.90;;;;;;4972967;28;20134;-53
2023/11/28 05:49:14;;;;;;;1.95;1.85;;;3.50;99.90;;;;;;4955645;28;20019;-51
2023/11/28 05:51:40;;;;;;;1.85;1.77;;;3.50;99.90;;;;;;4972912;28;20034;-52
2023/11/28 05:54:05;;;;;;;1.55;1.45;;;3.50;99.90;;;;;;4972430;28;20019;-54
2023/11/28 05:56:31;;;;;;;1.73;1.63;;;3.60;99.90;;;;;;4972645;28;20394;-53
2023/11/28 05:58:56;;;;;;;1.90;1.80;;;3.50;99.90;;;;;;4972679;28;20102;-51
2023/11/28 06:01:26;;;;;;;1.60;1.50;;;3.50;99.90;;;;;;4972681;28;20037;-54
2023/11/28 06:03:53;;;;;;;1.90;1.80;;;3.50;99.90;;;;;;4972351;28;20500;-53
2023/11/28 06:06:18;;;;;;;1.55;1.50;;;3.40;99.90;;;;;;4972854;28;20084;-52
2023/11/28 06:08:44;;;;;;;1.20;1.20;;;3.40;99.90;;;;;;4972531;28;20066;-51
2023/11/28 06:11:10;;;;;;;1.60;1.50;;;3.40;99.90;;;;;;4972442;28;20516;-48
2023/11/28 06:13:36;;;;;;;1.27;1.27;;;3.40;99.90;;;;;;4972223;28;20490;-49
2023/11/28 06:16:07;;;;;;;1.17;1.17;;;3.40;99.90;;;;;;4972650;28;20106;-49
2023/11/28 06:18:33;;;;;;;1.60;1.50;;;3.40;99.90;;;;;;4972933;28;20023;-49
2023/11/28 06:20:59;;;;;;;1.38;1.33;;;3.50;99.90;;;;;;4972372;28;20038;-52
2023/11/28 06:23:24;;;;;;;1.67;1.58;;;3.50;99.90;;;;;;4972010;28;20054;-53
2023/11/28 06:25:50;;;;;;;1.83;1.42;;;3.50;99.90;;;;;;4973286;28;20247;-55
2023/11/28 06:28:16;;;;;;;1.98;1.40;;;3.40;99.90;;;;;;4973022;28;20031;-55
2023/11/28 06:30:42;;;;;;;1.30;1.20;;;3.40;99.90;;;;;;4955571;28;20092;-54
2023/11/28 06:33:08;;;;;;;1.85;1.40;;;3.50;99.90;;;;;;4972462;28;20094;-59
2023/11/28 06:35:34;;;;;;;3.47;1.20;;;3.40;99.90;;;;;;4972661;28;20043;-51
2023/11/28 06:38:03;;;;;;;2.00;1.25;;;3.40;99.90;;;;;;4972296;28;20022;-49
2023/11/28 06:40:34;;;;;;;1.35;1.10;;;3.50;99.90;;;;;;4972296;28;20066;-43
2023/11/28 06:43:00;;;;;;;3.33;1.20;;;3.40;99.90;;;;;;4971953;28;20039;-47
2023/11/28 06:45:25;;;;;;;3.50;1.10;;;3.40;99.90;;;;;;4972084;28;20026;-51
2023/11/28 06:47:51;;;;;;;0.98;0.98;;;3.40;99.90;;;;;;4972182;28;20037;-50
2023/11/28 06:50:16;;;;;;;1.30;1.20;;;3.50;99.90;;;;;;4971724;28;20027;-45
2023/11/28 06:52:42;;;;;;;1.33;1.20;;;3.60;99.90;;;;;;4971270;28;20027;-50
2023/11/28 06:55:08;;;;;;;1.35;1.25;;;3.60;99.90;;;;;;4971932;28;20157;-57
2023/11/28 06:57:33;;;;;;;1.15;1.10;;;3.60;99.90;;;;;;4971989;28;20029;-48
2023/11/28 06:59:59;;;;;;;1.10;1.10;;;3.50;99.90;;;;;;4977416;28;20030;-46
2023/11/28 07:02:25;;;;;;;1.40;1.30;;;3.50;99.90;;;;;;4957223;28;20442;-47
2023/11/28 07:04:50;;;;;;;1.38;1.27;;;3.40;99.90;;;;;;4951100;28;20101;-48
2023/11/28 07:07:16;;;;;;;1.73;1.25;;;3.40;99.90;;;;;;4952578;28;20034;-46
2023/11/28 07:09:43;;;;;;;1.33;1.23;;;3.40;99.90;;;;;;4952737;29;20034;-49
2023/11/28 07:12:09;;;;;;;1.67;1.40;;;3.50;99.90;;;;;;4954210;28;20023;-48
2023/11/28 07:14:35;;;;;;;1.42;1.33;;;3.50;99.90;;;;;;4996290;28;20401;-50
2023/11/28 07:17:01;;;;;;;1.35;1.25;;;3.60;99.90;;;;;;4972222;28;20019;-48
2023/11/28 07:19:27;;;;;;;1.20;1.05;;;3.60;99.90;;;;;;4960424;28;20450;-47
2023/11/28 07:21:52;;;;;;;1.70;1.60;;;3.60;99.90;;;;;;4952456;29;20028;-49
2023/11/28 07:24:18;;;;;;;1.33;1.23;;;3.50;99.90;;;;;;4952322;29;20031;-47
2023/11/28 07:26:43;;;;;;;1.25;1.10;;;3.60;99.90;;;;;;4952415;28;20406;-48
2023/11/28 07:29:09;;;;;;;1.90;1.20;;;3.60;99.90;;;;;;4952300;28;20027;-50
2023/11/28 07:31:34;;;;;;;1.30;1.20;;;3.60;99.90;;;;;;4982386;28;20089;-46
2023/11/28 07:34:00;;;;;;;1.10;1.10;;;3.50;99.90;;;;;;4971191;28;20038;-46
2023/11/28 07:36:25;;;;;;;4.03;1.35;;;3.60;99.90;;;;;;4978175;28;20436;-44
2023/11/28 07:38:51;;;;;;;1.50;1.40;;;3.60;99.90;;;;;;4967085;28;20058;-48
2023/11/28 07:41:17;;;;;;;2.92;0.98;;;3.60;99.90;;;;;;4954157;28;20035;-45
2023/11/28 07:43:42;;;;;;;0.90;0.90;;;3.50;99.90;;;;;;4951778;28;20035;-46
2023/11/28 07:46:09;;;;;;;0.95;0.95;;;3.60;99.90;;;;;;4997630;28;20116;-48
2023/11/28 07:48:35;;;;;;;1.15;1.15;;;3.40;99.90;;;;;;5052409;28;20037;-45
2023/11/28 07:51:01;;;;;;;1.13;1.13;;;3.30;99.90;;;;;;4952643;28;20098;-49
2023/11/28 07:53:26;;;;;;;0.80;0.80;;;3.30;99.90;;;;;;4951516;28;20031;-48
2023/11/28 07:55:52;;;;;;;2.83;0.70;;;3.30;99.90;;;;;;4952845;28;20050;-52
2023/11/28 07:58:17;;;;;;;0.77;0.77;;;3.10;99.90;;;;;;4953000;28;20521;-46
2023/11/28 08:00:43;;;;;;;1.20;1.20;;;3.00;99.90;;;;;;4953552;28;20027;-49
2023/11/28 08:03:09;;;;;;;1.20;1.10;;;3.00;99.90;;;;;;4954797;28;20050;-46
2023/11/28 08:05:35;;;;;;;1.25;1.15;;;2.90;99.90;;;;;;4970048;28;20023;-48
2023/11/28 08:08:01;;;;;;;0.90;0.90;;;2.90;99.90;;;;;;4970659;28;20061;-47
2023/11/28 08:10:26;;;;;;;1.40;1.30;;;2.90;99.90;;;;;;4970697;28;20035;-57
2023/11/28 08:12:53;;;;;;;2.22;1.60;;;2.90;99.90;;;;;;4953113;28;20019;-52
2023/11/28 08:15:18;;;;;;;1.33;1.27;;;2.90;99.90;;;;;;4969839;28;20026;-48
2023/11/28 08:17:45;;;;;;;3.05;1.25;;;2.90;99.90;;;;;;5013121;28;20023;-47
2023/11/28 08:20:10;;;;;;;1.30;1.20;;;3.00;99.90;;;;;;4970423;28;20022;-45
2023/11/28 08:22:36;;;;;;;1.48;1.38;;;3.00;99.90;;;;;;4958337;28;20054;-43
2023/11/28 08:25:02;;;;;;;2.25;1.40;;;3.00;99.90;;;;;;4952880;28;20034;-45
2023/11/28 08:27:28;;;;;;;2.13;1.60;;;3.10;99.90;;;;;;4976600;28;20089;-52
2023/11/28 08:29:54;;;;;;;1.85;1.75;;;3.20;99.90;;;;;;4970479;28;20042;-48
2023/11/28 08:32:20;;;;;;;1.40;1.40;;;3.20;99.90;;;;;;4957324;28;20031;-51
2023/11/28 08:34:46;;;;;;;1.67;1.50;;;3.30;99.90;;;;;;4950899;29;20023;-48
2023/11/28 08:37:12;;;;;;;2.75;1.63;;;3.30;99.90;;;;;;4951040;29;20085;-47
2023/11/28 08:39:38;;;;;;;2.25;1.90;;;3.40;99.90;;;;;;4946874;28;20490;-49
2023/11/28 08:42:04;;;;;;;2.22;2.03;;;3.40;99.90;;;;;;5002488;28;20035;-49
2023/11/28 08:44:32;;;;;;;3.40;2.42;;;3.50;99.90;;;;;;4950936;28;20031;-50
2023/11/28 08:46:57;;;;;;;3.33;2.63;;;3.60;99.90;;;;;;4950627;28;20030;-48
2023/11/28 08:49:23;;;;;;;3.35;2.85;;;3.70;99.90;;;;;;4965828;28;20278;-43
2023/11/28 08:51:49;;;;;;;3.00;2.70;;;3.70;99.90;;;;;;4961752;28;20027;-49
2023/11/28 08:54:14;;;;;;;2.10;2.00;;;3.70;99.90;;;;;;4941876;28;20035;-47
2023/11/28 08:56:40;;;;;;;2.08;1.85;;;3.80;99.90;;;;;;5011512;28;20438;-46
2023/11/28 08:59:05;;;;;;;1.80;1.70;;;3.80;99.90;;;;;;4970260;28;20505;-46
2023/11/28 09:01:31;;;;;;;1.50;1.40;;;3.90;99.90;;;;;;4962160;28;20073;-48
2023/11/28 09:04:00;;;;;;;2.20;1.85;;;4.10;99.90;;;;;;4950255;28;20031;-47
2023/11/28 09:06:26;;;;;;;5.10;1.45;;;4.00;99.90;;;;;;4933294;29;20467;-48
2023/11/28 09:08:52;;;;;;;1.88;1.77;;;4.10;99.90;;;;;;4953343;28;20453;-51
2023/11/28 09:11:18;;;;;;;3.10;2.17;;;4.10;99.90;;;;;;4957965;28;20023;-50
2023/11/28 09:13:43;;;;;;;1.52;1.52;;;4.00;99.90;;;;;;5020485;28;20032;-48
2023/11/28 09:16:11;;;;;;;5.63;2.20;;;4.00;99.90;;;;;;5015131;28;20023;-50
2023/11/28 09:18:37;;;;;;;2.10;2.00;;;4.10;99.90;;;;;;4969400;28;20034;-49
2023/11/28 09:21:04;;;;;;;2.33;2.22;;;4.10;99.90;;;;;;4969792;28;20486;-50
2023/11/28 09:23:31;;;;;;;1.98;1.88;;;4.00;99.90;;;;;;4969510;28;20023;-51
2023/11/28 09:25:57;;;;;;;2.17;2.08;;;4.00;99.90;;;;;;4969748;28;20027;-49
2023/11/28 09:28:22;;;;;;;3.00;2.53;;;4.10;99.90;;;;;;4952277;28;20034;-48
2023/11/28 09:30:48;;;;;;;2.08;1.98;;;4.10;99.90;;;;;;4969430;28;20038;-49
2023/11/28 09:33:13;;;;;;;14.63;2.70;;;3.90;99.90;;;;;;4969335;28;20030;-50
2023/11/28 09:35:40;;;;;;;4.43;2.40;;;3.90;99.90;;;;;;4969690;28;20394;-48
2023/11/28 09:38:07;;;;;;;5.57;2.55;;;4.00;99.90;;;;;;4969450;28;20494;-47
2023/11/28 09:40:32;;;;;;;2.40;2.20;;;4.00;99.90;;;;;;4969374;28;20034;-51
2023/11/28 09:42:59;;;;;;;1.95;1.85;;;4.00;99.90;;;;;;4969238;28;20035;-47
2023/11/28 09:45:25;;;;;;;2.47;2.28;;;3.90;99.90;;;;;;4969425;28;20106;-48
2023/11/28 09:47:52;;;;;;;2.05;1.95;;;3.80;99.90;;;;;;4969577;28;20027;-49
2023/11/28 09:50:22;;;;;;;1.92;1.83;;;3.70;99.90;;;;;;4969262;28;20023;-44
2023/11/28 09:52:51;;;;;;;2.10;1.90;;;3.70;99.90;;;;;;4949778;28;20045;-55
2023/11/28 09:55:18;;;;;;;1.75;1.65;;;3.70;99.90;;;;;;4957714;28;20026;-46
2023/11/28 09:57:48;;;;;;;2.35;2.22;;;3.80;99.90;;;;;;4969247;28;20022;-48
2023/11/28 10:00:20;;;;;;;2.17;1.95;;;3.80;99.90;;;;;;4969192;28;20486;-47
2023/11/28 10:02:52;;;;;;;1.95;1.85;;;3.80;99.90;;;;;;4967242;28;20066;-50
2023/11/28 10:05:19;;;;;;;2.17;2.08;;;3.80;99.90;;;;;;4969173;28;20549;-47
2023/11/28 10:07:48;;;;;;;2.10;2.00;;;3.90;99.90;;;;;;4963455;28;20039;-49
2023/11/28 10:10:16;;;;;;;1.95;1.85;;;3.70;99.90;;;;;;4966380;28;20039;-50
2023/11/28 10:12:41;;;;;;;2.58;2.38;;;3.60;99.90;;;;;;4946005;28;20088;-49
2023/11/28 10:15:08;;;;;;;2.78;2.58;;;3.70;99.90;;;;;;4952043;28;20114;-50
2023/11/28 10:17:35;;;;;;;2.75;2.55;;;3.70;99.90;;;;;;4976499;28;20023;-49
2023/11/28 10:20:08;;;;;;;2.58;2.45;;;3.60;99.90;;;;;;4933956;28;20545;-50
2023/11/28 10:22:34;;;;;;;2.63;2.42;;;3.70;99.90;;;;;;4949761;29;20490;-49
2023/11/28 10:25:11;;;;;;;3.00;2.70;;;3.60;99.90;;;;;;4951787;28;20521;-48
2023/11/28 10:27:40;;;;;;;3.15;2.85;;;3.70;99.90;;;;;;4950338;28;20055;-52
2023/11/28 10:30:11;;;;;;;2.80;2.60;;;3.70;99.90;;;;;;4959705;28;20042;-53
2023/11/28 10:32:37;;;;;;;3.88;3.00;;;3.70;99.90;;;;;;4955093;28;20032;-49
2023/11/28 10:35:05;;;;;;;4.63;2.83;;;3.70;99.90;;;;;;4962795;28;20042;-48
2023/11/28 10:37:33;;;;;;;3.40;3.13;;;3.60;99.90;;;;;;4963698;28;20019;-52
2023/11/28 10:40:02;;;;;;;2.60;2.40;;;3.70;99.90;;;;;;4942367;28;20401;-53
2023/11/28 10:42:27;;;;;;;2.65;2.47;;;3.70;99.90;;;;;;4971419;28;20038;-50
2023/11/28 10:44:55;;;;;;;2.60;2.50;;;3.70;99.90;;;;;;4972203;28;20446;-51
2023/11/28 10:47:21;;;;;;;2.90;2.70;;;3.60;99.90;;;;;;4972149;28;20080;-52
2023/11/28 10:49:47;;;;;;;3.05;2.75;;;3.60;99.90;;;;;;4953620;28;20436;-51
2023/11/28 10:52:18;;;;;;;3.28;3.05;;;3.70;99.90;;;;;;4965392;28;20035;-51
2023/11/28 10:54:52;;;;;;;2.80;2.60;;;3.70;99.90;;;;;;4949414;28;20037;-54
2023/11/28 10:57:22;;;;;;;3.28;3.08;;;3.70;99.90;;;;;;4967080;28;20096;-51
2023/11/28 10:59:49;;;;;;;3.33;2.97;;;3.80;99.90;;;;;;4997078;28;20055;-51
2023/11/28 11:02:16;;;;;;;2.42;2.33;;;3.90;99.90;;;;;;4980548;28;20020;-52
2023/11/28 11:04:45;;;;;;;3.40;3.10;;;3.90;99.90;;;;;;4935309;29;20085;-55
2023/11/28 11:07:10;;;;;;;3.50;3.20;;;3.90;99.90;;;;;;4952508;28;20122;-54
2023/11/28 11:09:36;;;;;;;3.60;3.30;;;3.90;99.90;;;;;;4959705;28;20035;-57
2023/11/28 11:12:04;;;;;;;3.58;3.28;;;3.80;99.90;;;;;;4959744;28;20027;-49
2023/11/28 11:15:18;;;;;;;3.83;3.42;;;3.70;99.90;;;;;;4971792;28;20027;-50
2023/11/28 11:18:04;;;;;;;3.70;3.40;;;3.70;99.90;;;;;;4960922;28;20039;-48
2023/11/28 11:20:32;;;;;;;;;;;3.70;99.90;;;;;;4952726;28;20062;-54
2023/11/28 11:23:02;;;;;;;21.83;14.15;;;3.80;99.90;;;;;;4952254;29;19911;-48
2023/11/28 11:25:39;;;;;;;4.30;3.90;;;3.80;99.90;;;;;;4952501;28;20093;-49
2023/11/28 11:28:04;;;;;;;4.20;3.88;;;3.90;99.90;;;;;;4960457;28;20434;-52
2023/11/28 11:30:36;;;;;;;4.07;3.78;;;3.90;99.90;;;;;;4971466;28;20061;-49
2023/11/28 11:33:04;;;;;;;4.20;3.80;;;3.90;99.90;;;;;;4954250;28;20027;-54
2023/11/28 11:35:31;;;;;;;4.25;3.95;;;4.00;99.90;;;;;;4971492;28;20498;-52
2023/11/28 11:37:57;;;;;;;4.35;3.72;;;3.90;99.90;;;;;;4971809;28;20027;-50
2023/11/28 11:40:22;;;;;;;4.55;3.60;;;3.80;99.90;;;;;;4987226;28;20037;-50
2023/11/28 11:42:48;;;;;;;3.88;3.58;;;3.80;99.90;;;;;;4990297;28;20030;-48
2023/11/28 11:45:20;;;;;;;4.47;3.63;;;3.90;99.90;;;;;;4988848;28;20087;-50
2023/11/28 11:47:46;;;;;;;4.65;4.10;;;3.90;99.90;;;;;;4971341;28;20064;-51
2023/11/28 11:50:16;;;;;;;3.60;3.30;;;3.90;99.90;;;;;;4965449;28;20042;-54
2023/11/28 11:52:42;;;;;;;4.07;3.72;;;3.80;99.90;;;;;;4951461;28;20031;-50
2023/11/28 11:55:12;;;;;;;4.13;3.60;;;3.80;99.90;;;;;;4951755;29;20031;-53
2023/11/28 11:57:38;;;;;;;4.00;3.70;;;3.80;99.90;;;;;;4942430;28;20105;-51
2023/11/28 12:00:07;;;;;;;5.00;4.55;;;3.80;99.90;;;;;;4970910;28;20047;-51
2023/11/28 12:02:44;;;;;;;4.25;3.92;;;3.80;99.90;;;;;;4956131;28;20067;-49
2023/11/28 12:05:13;;;;;;;4.95;4.45;;;3.70;99.90;;;;;;4934227;29;20142;-54
2023/11/28 12:07:42;;;;;;;4.75;4.28;;;3.60;99.90;;;;;;4954705;28;20028;-52
2023/11/28 12:10:09;;;;;;;5.07;4.35;;;3.50;99.90;;;;;;4951246;28;20035;-52
2023/11/28 12:12:35;;;;;;;5.10;4.60;;;3.50;99.90;;;;;;4952508;28;20047;-55
2023/11/28 12:15:01;;;;;;;5.25;4.78;;;3.40;99.90;;;;;;4964731;28;20687;-51
2023/11/28 12:17:27;;;;;;;5.93;5.30;;;3.40;99.90;;;;;;4969508;28;20039;-55
2023/11/28 12:19:52;;;;;;;5.53;4.88;;;3.40;99.90;;;;;;4961829;28;20035;-52
2023/11/28 12:22:18;;;;;;;5.32;4.80;;;3.40;99.90;;;;;;4949815;28;20460;-51
2023/11/28 12:24:44;;;;;;;5.18;4.50;;;3.40;99.90;;;;;;4950328;28;20042;-51
2023/11/28 12:27:10;;;;;;;5.63;4.65;;;3.40;99.90;;;;;;4952322;28;20031;-50
2023/11/28 12:29:37;;;;;;;5.07;4.63;;;3.40;99.90;;;;;;4970226;28;20082;-51
2023/11/28 12:32:04;;;;;;;7.55;5.28;;;3.50;99.90;;;;;;5051496;28;20108;-55
2023/11/28 12:34:31;;;;;;;7.03;4.97;;;3.40;99.90;;;;;;5002199;28;20035;-53
2023/11/28 12:36:58;;;;;;;58.58;31.17;;;3.40;99.90;;;;;;4951015;28;20031;-56
2023/11/28 12:39:28;;;;;;;18.25;10.77;;;3.50;99.90;;;;;;4953366;28;20051;-50
2023/11/28 12:41:54;;;;;;;178.68;80.03;;;3.40;99.90;;;;;;4950861;29;20035;-51
2023/11/28 12:44:31;;;;;;;16.27;9.65;;;3.30;99.90;;;;;;4950952;28;20439;-50
2023/11/28 12:46:57;;;;;;;5.68;4.55;;;3.40;99.90;;;;;;4949069;28;20035;-52
2023/11/28 12:49:24;;;;;;;5.15;4.40;;;3.30;99.90;;;;;;4947438;28;20506;-51
2023/11/28 12:51:50;;;;;;;5.07;4.45;;;3.30;99.90;;;;;;4950856;28;20038;-53